CheckWX is a tool to help pilots better visualize weather data.  It is not intended as a substitute for an official pre-flight weather briefing.

20:26:23 UTC

HEBL METAR
Abu Simbel Airport
Abu Simbel, Egypt
Current

1 hour ago

HEBL 201900Z 36008KT CAVOK 29/02 Q1013 NOSIG
Observed
Apr-20 @ 19:00 UTC
Wind
  • 360° at 8 KTS
Visibility
10,000+ meters
Flight Rules
VFR
Cloud Levels
  • Clear skies
Temperature
29°C / 84°F
Dewpoint
C / 36°F
Humidity
18%
Altimeter
29.91" Hg
Pressure
1012.92 hPa
Previous

2 hours ago

HEBL 201800Z 36008KT CAVOK 29/02 Q1013 NOSIG
Observed
Apr-20 @ 18:00 UTC
Wind
  • 360° at 8 KTS
Visibility
10,000+ meters
Flight Rules
VFR
Cloud Levels
  • Clear skies
Temperature
29°C / 84°F
Dewpoint
C / 36°F
Humidity
18%
Altimeter
29.91" Hg
Pressure
1012.92 hPa
Previous

3 hours ago

HEBL 201700Z 36008KT CAVOK 29/02 Q1013 NOSIG
Observed
Apr-20 @ 17:00 UTC
Wind
  • 360° at 8 KTS
Visibility
10,000+ meters
Flight Rules
VFR
Cloud Levels
  • Clear skies
Temperature
29°C / 84°F
Dewpoint
C / 36°F
Humidity
18%
Altimeter
29.91" Hg
Pressure
1012.92 hPa